createdAt,value
2018-04-30T00:01:38.688Z,77.00
2018-04-30T00:03:42.048Z,76.50
2018-04-30T00:05:44.654Z,76.50
2018-04-30T00:07:47.999Z,76.60
2018-04-30T00:09:51.396Z,76.20
2018-04-30T00:11:54.757Z,76.70
2018-04-30T00:13:57.336Z,76.60
2018-04-30T00:15:59.949Z,76.80
2018-04-30T00:18:02.544Z,76.60
2018-04-30T00:20:05.172Z,76.40
2018-04-30T00:22:07.788Z,76.40
2018-04-30T00:24:10.379Z,76.30
2018-04-30T00:26:13.752Z,75.60
2018-04-30T00:28:16.351Z,75.60
2018-04-30T00:30:19.758Z,75.60
2018-04-30T00:32:22.341Z,75.70
2018-04-30T00:34:24.936Z,75.20
2018-04-30T00:36:27.547Z,75.00
2018-04-30T00:38:30.129Z,75.40
2018-04-30T00:40:33.590Z,76.00
2018-04-30T00:42:36.161Z,76.00
2018-04-30T00:44:38.784Z,75.80
2018-04-30T00:46:41.396Z,76.10
2018-04-30T00:48:43.991Z,76.60
2018-04-30T00:50:46.588Z,76.30
2018-04-30T00:52:49.197Z,76.60
2018-04-30T00:55:00.586Z,76.40
2018-04-30T00:57:03.200Z,76.60
2018-04-30T00:59:05.792Z,76.60
2018-04-30T01:01:08.388Z,76.60
2018-04-30T01:03:10.972Z,77.20
2018-04-30T01:05:13.549Z,78.00
2018-04-30T01:07:16.155Z,77.60
2018-04-30T01:09:19.564Z,78.00
2018-04-30T01:11:22.159Z,78.00
2018-04-30T01:13:25.559Z,77.70
2018-04-30T01:15:28.918Z,77.40
2018-04-30T01:17:31.567Z,77.30
2018-04-30T01:19:34.200Z,77.30
2018-04-30T01:21:37.584Z,77.50
2018-04-30T01:23:40.175Z,77.50
2018-04-30T01:25:43.532Z,72.50
2018-04-30T01:27:46.149Z,72.50
2018-04-30T01:29:48.779Z,73.00
2018-04-30T01:31:51.401Z,74.70
2018-04-30T01:33:53.987Z,76.60
2018-04-30T01:35:56.577Z,77.20
2018-04-30T01:37:59.184Z,77.60
2018-04-30T01:40:01.778Z,79.30
2018-04-30T01:42:05.221Z,82.90
2018-04-30T01:44:07.924Z,82.90
2018-04-30T01:46:10.529Z,83.70
2018-04-30T01:48:13.888Z,84.90
2018-04-30T01:50:16.509Z,85.00
2018-04-30T01:52:19.129Z,85.20
2018-04-30T01:54:21.721Z,85.40
2018-04-30T01:56:24.305Z,85.50
2018-04-30T01:58:27.702Z,86.90
2018-04-30T02:00:31.087Z,86.90
2018-04-30T02:02:33.683Z,86.90
2018-04-30T02:04:37.028Z,87.60
2018-04-30T02:06:39.624Z,87.50
2018-04-30T02:08:42.240Z,87.40
2018-04-30T02:10:44.828Z,87.70
2018-04-30T02:12:47.448Z,88.00
2018-04-30T02:14:50.130Z,88.00
2018-04-30T02:16:52.903Z,87.80
2018-04-30T02:18:55.488Z,87.70
2018-04-30T02:20:58.863Z,86.90
2018-04-30T02:23:01.473Z,86.90
2018-04-30T02:25:04.054Z,84.80
2018-04-30T02:27:06.663Z,82.90
2018-04-30T02:29:09.252Z,80.10
2018-04-30T02:31:11.847Z,79.20
2018-04-30T02:33:15.248Z,76.90
2018-04-30T02:35:18.621Z,76.70
2018-04-30T02:37:21.218Z,76.70
2018-04-30T02:39:24.564Z,74.60
2018-04-30T02:41:27.174Z,74.60
2018-04-30T02:43:29.776Z,72.70
2018-04-30T02:45:33.233Z,70.00
2018-04-30T02:47:35.828Z,70.00
2018-04-30T02:49:39.174Z,67.80
2018-04-30T02:51:41.769Z,67.80
2018-04-30T02:53:44.384Z,67.70
2018-04-30T02:55:46.961Z,65.80
2018-04-30T02:57:49.565Z,65.70
2018-04-30T02:59:52.147Z,64.20
2018-04-30T03:01:54.728Z,64.20
2018-04-30T03:03:57.331Z,64.30
2018-04-30T03:06:00.724Z,66.20
2018-04-30T03:08:04.125Z,64.70
2018-04-30T03:10:07.471Z,65.60
2018-04-30T03:12:10.181Z,65.60
2018-04-30T03:14:13.576Z,64.80
2018-04-30T03:16:16.932Z,66.10
2018-04-30T03:18:19.537Z,65.90
2018-04-30T03:20:22.128Z,65.70
2018-04-30T03:22:25.537Z,63.30
2018-04-30T03:24:28.151Z,63.30
2018-04-30T03:26:30.726Z,64.80
2018-04-30T03:28:33.336Z,62.80
2018-04-30T03:30:36.684Z,62.10
2018-04-30T03:32:39.271Z,62.10
2018-04-30T03:34:41.864Z,60.80
2018-04-30T03:36:44.444Z,61.40
2018-04-30T03:38:47.815Z,60.20
2018-04-30T03:40:50.415Z,60.20
2018-04-30T03:42:53.761Z,58.50
2018-04-30T03:44:57.123Z,58.10
2018-04-30T03:46:59.697Z,58.10
2018-04-30T03:49:02.303Z,58.80
2018-04-30T03:51:05.000Z,57.60
2018-04-30T03:53:07.584Z,58.30
2018-04-30T03:55:10.197Z,58.40
2018-04-30T03:57:12.779Z,57.60
2018-04-30T03:59:15.387Z,57.80
2018-04-30T04:01:29.816Z,59.00
2018-04-30T04:03:44.120Z,59.50
2018-04-30T04:05:59.208Z,60.40
2018-04-30T04:08:01.812Z,60.40
2018-04-30T04:10:04.417Z,61.10
2018-04-30T04:12:07.028Z,61.30
2018-04-30T04:14:09.630Z,63.20
2018-04-30T04:16:12.208Z,63.80
2018-04-30T04:18:14.793Z,66.00
2018-04-30T04:20:17.412Z,66.60
2018-04-30T04:22:20.771Z,67.30
2018-04-30T04:24:23.392Z,67.30
2018-04-30T04:26:25.996Z,67.10
2018-04-30T04:28:28.596Z,67.20
2018-04-30T04:30:31.212Z,67.30
2018-04-30T04:32:33.792Z,67.90
2018-04-30T04:34:37.192Z,69.20
2018-04-30T04:36:39.787Z,69.20
2018-04-30T04:38:42.376Z,70.40
2018-04-30T04:40:44.995Z,71.20
2018-04-30T04:42:48.350Z,72.10
2018-04-30T04:44:50.954Z,72.10
2018-04-30T04:46:54.296Z,74.60
2018-04-30T04:48:56.883Z,74.50
2018-04-30T04:50:59.484Z,75.60
2018-04-30T04:53:02.068Z,75.20
2018-04-30T04:55:05.537Z,77.10
2018-04-30T04:57:08.111Z,77.10
2018-04-30T04:59:10.741Z,79.10
2018-04-30T05:01:13.328Z,81.60
2018-04-30T05:03:15.924Z,84.10
2018-04-30T05:05:18.563Z,84.80
2018-04-30T05:07:21.144Z,84.80
2018-04-30T05:09:23.752Z,84.90
2018-04-30T05:11:26.330Z,83.70
2018-04-30T05:13:28.918Z,85.70
2018-04-30T05:15:31.753Z,84.30
2018-04-30T05:17:34.346Z,85.00
2018-04-30T05:19:36.952Z,85.00
2018-04-30T05:21:40.311Z,84.60
2018-04-30T05:23:42.896Z,84.60
2018-04-30T05:25:45.505Z,83.80
2018-04-30T05:27:48.104Z,82.60
2018-04-30T05:29:50.748Z,83.30
2018-04-30T05:31:54.096Z,85.70
2018-04-30T05:33:56.721Z,85.70
2018-04-30T05:36:00.097Z,87.50
2018-04-30T05:38:03.449Z,87.10
2018-04-30T05:40:06.057Z,87.10
2018-04-30T05:42:08.623Z,86.30
2018-04-30T05:44:11.203Z,87.30
2018-04-30T05:46:14.585Z,87.10
2018-04-30T05:48:17.172Z,87.00
2018-04-30T05:50:19.823Z,87.20
2018-04-30T05:52:22.416Z,88.00
2018-04-30T05:54:25.004Z,83.90
2018-04-30T05:56:28.363Z,86.10
2018-04-30T05:58:31.715Z,87.20
2018-04-30T06:00:34.361Z,87.10
2018-04-30T06:02:37.745Z,87.00
2018-04-30T06:04:40.336Z,87.00
2018-04-30T06:06:43.712Z,86.40
2018-04-30T06:08:46.288Z,86.40
2018-04-30T06:10:49.662Z,86.20
2018-04-30T06:12:52.364Z,86.20
2018-04-30T06:14:55.715Z,86.80
2018-04-30T06:16:58.320Z,86.80
2018-04-30T06:19:00.928Z,86.70
2018-04-30T06:21:03.556Z,87.70
2018-04-30T06:23:06.196Z,86.40
2018-04-30T06:25:08.776Z,85.60
2018-04-30T06:27:11.380Z,86.40
2018-04-30T06:29:13.972Z,86.80
2018-04-30T06:31:16.592Z,86.90
2018-04-30T06:33:19.172Z,87.10
2018-04-30T06:35:21.760Z,86.90
2018-04-30T06:37:24.384Z,85.20
2018-04-30T06:39:26.984Z,85.60
2018-04-30T06:41:29.584Z,87.30
2018-04-30T06:43:32.960Z,86.50
2018-04-30T06:45:35.565Z,86.70
2018-04-30T06:47:38.202Z,88.70
2018-04-30T06:49:40.788Z,87.70
2018-04-30T06:51:43.391Z,89.20
2018-04-30T06:53:46.027Z,88.00
2018-04-30T06:55:48.604Z,88.00
2018-04-30T06:57:51.199Z,86.90
2018-04-30T06:59:53.803Z,87.30
2018-04-30T07:01:56.391Z,88.40
2018-04-30T07:03:59.763Z,89.40
2018-04-30T07:06:02.357Z,89.40
2018-04-30T07:08:05.717Z,88.50
2018-04-30T07:10:08.329Z,88.40
2018-04-30T07:12:11.712Z,89.80
2018-04-30T07:14:15.088Z,88.50
2018-04-30T07:16:17.711Z,88.50
2018-04-30T07:18:20.299Z,89.60
2018-04-30T07:20:22.930Z,89.60
2018-04-30T07:22:26.315Z,88.10
2018-04-30T07:24:29.712Z,86.20
2018-04-30T07:26:33.143Z,87.60
2018-04-30T07:28:35.733Z,87.50
2018-04-30T07:30:38.324Z,89.00
2018-04-30T07:32:40.961Z,89.40
2018-04-30T07:34:43.534Z,88.90
2018-04-30T07:36:46.151Z,87.50
2018-04-30T07:38:48.736Z,88.90
2018-04-30T07:40:51.341Z,88.40
2018-04-30T07:42:53.952Z,86.60
2018-04-30T07:44:56.557Z,84.20
2018-04-30T07:46:59.173Z,82.90
2018-04-30T07:49:01.776Z,85.50
2018-04-30T07:51:04.396Z,84.60
2018-04-30T07:53:07.780Z,81.60
2018-04-30T07:55:10.364Z,81.50
2018-04-30T07:57:13.759Z,81.40
2018-04-30T07:59:17.146Z,82.30
2018-04-30T08:01:20.551Z,81.50
2018-04-30T08:03:23.941Z,82.90
2018-04-30T08:05:27.293Z,80.00
2018-04-30T08:07:29.911Z,80.00
2018-04-30T08:09:33.643Z,81.20
2018-04-30T08:11:36.284Z,81.20
2018-04-30T08:13:39.680Z,80.60
2018-04-30T08:15:43.043Z,81.40
2018-04-30T08:17:45.659Z,81.50
2018-04-30T08:19:48.239Z,81.80
2018-04-30T08:21:50.824Z,81.10
2018-04-30T08:23:53.471Z,80.50
2018-04-30T08:25:56.828Z,80.90
2018-04-30T08:27:59.460Z,80.90
2018-04-30T08:30:02.124Z,81.60
2018-04-30T08:32:04.702Z,81.20
2018-04-30T08:34:07.334Z,80.40
2018-04-30T08:36:09.918Z,81.30
2018-04-30T08:38:13.299Z,78.30
2018-04-30T08:40:15.944Z,78.20
2018-04-30T08:42:18.548Z,80.60
2018-04-30T08:44:21.164Z,78.30
2018-04-30T08:46:23.747Z,77.00
2018-04-30T08:48:26.376Z,78.70
2018-04-30T08:50:28.983Z,76.40
2018-04-30T08:52:31.561Z,75.90
2018-04-30T08:54:34.179Z,78.00
2018-04-30T08:56:37.561Z,75.30
2018-04-30T08:58:40.184Z,75.20
2018-04-30T09:00:43.580Z,75.80
2018-04-30T09:02:46.955Z,74.10
2018-04-30T09:04:49.545Z,74.10
2018-04-30T09:06:52.923Z,72.80
2018-04-30T09:08:55.554Z,72.80
2018-04-30T09:10:58.152Z,70.70
2018-04-30T09:13:00.749Z,70.30
2018-04-30T09:15:03.475Z,70.80
2018-04-30T09:17:05.992Z,69.60
2018-04-30T09:19:08.625Z,65.60
2018-04-30T09:21:11.247Z,65.80
2018-04-30T09:23:13.835Z,63.60
2018-04-30T09:25:17.280Z,64.80
2018-04-30T09:27:19.920Z,64.80
2018-04-30T09:29:22.525Z,64.70
2018-04-30T09:31:25.144Z,65.50
2018-04-30T09:33:28.499Z,63.60
2018-04-30T09:35:31.129Z,63.60
2018-04-30T09:37:33.713Z,60.90
2018-04-30T09:39:36.320Z,61.20
2018-04-30T09:41:38.891Z,60.40
2018-04-30T09:43:41.804Z,61.50
2018-04-30T09:45:44.386Z,61.50
2018-04-30T09:47:47.772Z,58.30
2018-04-30T09:49:50.400Z,58.30
2018-04-30T09:51:52.950Z,60.10
2018-04-30T09:53:55.557Z,57.70
2018-04-30T09:55:58.148Z,57.50
2018-04-30T09:58:00.765Z,60.10
2018-04-30T10:00:04.151Z,58.70
2018-04-30T10:02:07.511Z,60.60
2018-04-30T10:04:10.202Z,60.60
2018-04-30T10:06:12.800Z,58.70
2018-04-30T10:08:16.151Z,54.10
2018-04-30T10:10:18.755Z,54.00
2018-04-30T10:12:22.116Z,56.60
2018-04-30T10:14:24.712Z,56.50
2018-04-30T10:16:27.315Z,54.10
2018-04-30T10:18:29.935Z,54.10
2018-04-30T10:20:32.532Z,54.60
2018-04-30T10:22:35.195Z,55.10
2018-04-30T10:24:37.805Z,54.90
2018-04-30T10:26:41.178Z,53.80
2018-04-30T10:28:43.758Z,53.80
2018-04-30T10:30:47.124Z,53.30
2018-04-30T10:32:49.771Z,53.40
2018-04-30T10:34:52.534Z,49.80
2018-04-30T10:36:55.148Z,49.90
2018-04-30T10:38:57.851Z,49.70
2018-04-30T10:41:01.248Z,52.30
2018-04-30T10:43:03.852Z,52.30
2018-04-30T10:45:06.540Z,49.80
2018-04-30T10:47:12.502Z,47.00
2018-04-30T10:49:15.264Z,47.00
2018-04-30T10:51:17.866Z,47.00
2018-04-30T10:53:20.472Z,47.70
2018-04-30T10:55:23.313Z,46.60
2018-04-30T10:57:25.907Z,46.80
2018-04-30T10:59:29.220Z,45.10
2018-04-30T11:01:32.596Z,45.30
2018-04-30T11:03:35.187Z,45.20
2018-04-30T11:05:40.089Z,44.80
2018-04-30T11:07:43.231Z,44.70
2018-04-30T11:09:46.057Z,45.40
2018-04-30T11:11:49.096Z,45.50
2018-04-30T11:13:51.694Z,45.60
2018-04-30T11:15:55.125Z,45.70
2018-04-30T11:17:57.707Z,46.00
2018-04-30T11:20:01.072Z,44.20
2018-04-30T11:22:03.720Z,44.10
2018-04-30T11:24:06.363Z,43.00
2018-04-30T11:26:08.959Z,42.80
2018-04-30T11:28:11.816Z,43.30
2018-04-30T11:30:15.469Z,43.80
2018-04-30T11:32:18.093Z,43.80
2018-04-30T11:34:22.392Z,43.70
2018-04-30T11:36:25.177Z,43.80
2018-04-30T11:38:27.795Z,42.90
2018-04-30T11:40:30.411Z,44.30
2018-04-30T11:42:33.826Z,43.80
2018-04-30T11:44:37.378Z,43.70
2018-04-30T11:46:40.000Z,44.50
2018-04-30T11:48:42.598Z,43.80
2018-04-30T11:50:45.224Z,45.20
2018-04-30T11:52:48.619Z,43.00
2018-04-30T11:54:51.988Z,43.00
2018-04-30T11:56:54.637Z,43.00
2018-04-30T11:58:57.292Z,43.50
2018-04-30T12:00:59.880Z,41.40
2018-04-30T12:03:02.508Z,42.60
2018-04-30T12:05:05.175Z,43.50
2018-04-30T12:07:07.796Z,42.20
2018-04-30T12:09:10.402Z,43.70
2018-04-30T12:11:13.043Z,43.50
2018-04-30T12:13:15.663Z,42.90
2018-04-30T12:15:18.268Z,43.30
2018-04-30T12:17:21.658Z,43.10
2018-04-30T12:19:25.021Z,43.80
2018-04-30T12:21:27.663Z,43.60
2018-04-30T12:23:30.265Z,43.70
2018-04-30T12:25:32.855Z,42.10
2018-04-30T12:27:35.473Z,41.70
2018-04-30T12:29:38.170Z,42.60
2018-04-30T12:31:40.780Z,41.70
2018-04-30T12:33:43.404Z,43.60
2018-04-30T12:35:46.009Z,41.00
2018-04-30T12:37:48.616Z,40.50
2018-04-30T12:39:51.263Z,41.30
2018-04-30T12:41:53.879Z,41.00
2018-04-30T12:43:57.268Z,41.10
2018-04-30T12:46:00.623Z,41.40
2018-04-30T12:48:03.299Z,41.40
2018-04-30T12:50:05.891Z,40.00
2018-04-30T12:52:08.515Z,42.10
2018-04-30T12:54:11.100Z,40.60
2018-04-30T12:56:13.730Z,40.80
2018-04-30T12:58:16.356Z,41.40
2018-04-30T13:00:18.960Z,43.00
2018-04-30T13:02:21.585Z,42.80
2018-04-30T13:04:24.190Z,41.70
2018-04-30T13:06:26.812Z,42.10
2018-04-30T13:08:29.465Z,40.50
2018-04-30T13:10:32.836Z,39.30
2018-04-30T13:12:35.503Z,39.10
2018-04-30T13:14:38.880Z,40.50
2018-04-30T13:16:41.479Z,40.60
2018-04-30T13:18:44.111Z,40.70
2018-04-30T13:20:46.699Z,41.90
2018-04-30T13:22:49.311Z,42.30
2018-04-30T13:24:51.980Z,42.10
2018-04-30T13:26:54.573Z,42.50
2018-04-30T13:28:57.188Z,40.20
2018-04-30T13:30:59.924Z,41.60
2018-04-30T13:33:02.516Z,42.20
2018-04-30T13:35:05.892Z,40.20
2018-04-30T13:37:08.533Z,40.20
2018-04-30T13:39:11.136Z,40.20
2018-04-30T13:41:13.728Z,38.90
2018-04-30T13:43:17.100Z,38.20
2018-04-30T13:45:19.685Z,38.10
2018-04-30T13:47:22.316Z,39.00
2018-04-30T13:49:24.907Z,38.40
2018-04-30T13:51:27.508Z,39.20
2018-04-30T13:53:30.155Z,37.00
2018-04-30T13:55:32.756Z,37.10
2018-04-30T13:57:35.383Z,37.10
2018-04-30T13:59:37.968Z,38.00
2018-04-30T14:01:40.552Z,35.80
2018-04-30T14:03:43.233Z,35.80
2018-04-30T14:05:45.809Z,37.50
2018-04-30T14:07:48.408Z,37.10
2018-04-30T14:09:51.008Z,37.80
2018-04-30T14:11:54.382Z,35.10
2018-04-30T14:13:57.764Z,34.40
2018-04-30T14:16:00.435Z,35.00
2018-04-30T14:18:02.994Z,32.60
2018-04-30T14:20:05.571Z,33.50
2018-04-30T14:22:08.208Z,32.80
2018-04-30T14:24:10.815Z,31.80
2018-04-30T14:26:13.407Z,34.40
2018-04-30T14:28:16.820Z,33.10
2018-04-30T14:30:20.170Z,32.40
2018-04-30T14:32:22.757Z,32.30
2018-04-30T14:34:25.372Z,30.00
2018-04-30T14:36:28.011Z,30.50
2018-04-30T14:38:30.939Z,30.60
2018-04-30T14:40:33.535Z,33.10
2018-04-30T14:42:36.152Z,31.40
2018-04-30T14:44:38.782Z,30.50
2018-04-30T14:46:41.371Z,30.40
2018-04-30T14:48:44.108Z,30.70
2018-04-30T14:50:46.723Z,30.20
2018-04-30T14:52:49.300Z,31.20
2018-04-30T14:54:51.916Z,31.60
2018-04-30T14:56:55.271Z,31.00
2018-04-30T14:58:57.899Z,31.00
2018-04-30T15:01:00.476Z,30.90
2018-04-30T15:03:03.196Z,30.30
2018-04-30T15:05:05.831Z,31.20
2018-04-30T15:07:08.454Z,31.00
2018-04-30T15:09:11.075Z,31.20
2018-04-30T15:11:13.684Z,31.00
2018-04-30T15:15:25.861Z,31.80
2018-04-30T15:17:28.451Z,31.80
2018-04-30T15:19:31.100Z,31.40
2018-04-30T15:21:33.687Z,31.40
2018-04-30T15:23:36.276Z,31.00
2018-04-30T15:25:38.886Z,31.80
2018-04-30T15:27:41.524Z,33.00
2018-04-30T15:29:44.208Z,31.80
2018-04-30T15:31:46.813Z,31.00
2018-04-30T15:33:50.253Z,32.90
2018-04-30T15:35:52.884Z,34.50
2018-04-30T15:37:55.448Z,35.20
2018-04-30T15:39:58.119Z,35.50
2018-04-30T15:42:00.800Z,36.00
2018-04-30T15:44:03.772Z,36.10
2018-04-30T15:46:06.413Z,36.80
2018-04-30T15:48:09.008Z,36.00
2018-04-30T15:50:11.630Z,36.50
2018-04-30T15:52:14.984Z,35.60
2018-04-30T15:54:17.592Z,35.60
2018-04-30T15:56:20.199Z,35.30
2018-04-30T15:58:22.788Z,35.50
2018-04-30T16:00:25.416Z,36.00
2018-04-30T16:02:28.009Z,36.50
2018-04-30T16:04:31.400Z,35.70
2018-04-30T16:06:34.763Z,35.70
2018-04-30T16:08:37.397Z,35.60
2018-04-30T16:10:40.008Z,35.70
2018-04-30T16:12:42.608Z,36.20
2018-04-30T16:14:45.987Z,35.80
2018-04-30T16:16:48.580Z,35.80
2018-04-30T16:18:51.971Z,36.30
2018-04-30T16:20:55.399Z,36.50
2018-04-30T16:22:57.984Z,36.40
2018-04-30T16:25:00.608Z,36.70
2018-04-30T16:27:03.976Z,37.00
2018-04-30T16:29:06.560Z,37.00
2018-04-30T16:31:09.172Z,38.00
2018-04-30T16:33:11.769Z,38.70
2018-04-30T16:35:14.400Z,38.80
2018-04-30T16:37:17.819Z,38.90
2018-04-30T16:39:20.428Z,38.90
2018-04-30T16:41:23.044Z,39.30
2018-04-30T16:43:26.419Z,40.20
2018-04-30T16:45:29.038Z,40.20
2018-04-30T16:47:31.620Z,40.30
2018-04-30T16:49:34.307Z,40.70
2018-04-30T16:51:36.911Z,39.60
2018-04-30T16:53:39.536Z,38.80
2018-04-30T16:55:42.143Z,38.10
2018-04-30T16:57:44.745Z,39.00
2018-04-30T16:59:47.353Z,39.00
2018-04-30T17:01:49.968Z,38.90
2018-04-30T17:03:52.652Z,38.50
2018-04-30T17:05:55.980Z,38.90
2018-04-30T17:07:59.328Z,39.80
2018-04-30T17:10:02.284Z,39.70
2018-04-30T17:12:04.972Z,40.90
2018-04-30T17:14:07.566Z,41.00
2018-04-30T17:16:10.180Z,41.90
2018-04-30T17:18:13.536Z,43.10
2018-04-30T17:20:16.163Z,43.10
2018-04-30T17:22:18.760Z,43.40
2018-04-30T17:24:21.349Z,43.10
2018-04-30T17:26:23.972Z,43.50
2018-04-30T17:28:27.328Z,43.50
2018-04-30T17:30:30.108Z,43.40
2018-04-30T17:32:33.395Z,44.00
2018-04-30T17:34:35.978Z,43.90
2018-04-30T17:36:38.595Z,44.70
2018-04-30T17:38:41.180Z,44.90
2018-04-30T17:40:43.784Z,45.30
2018-04-30T17:42:46.394Z,45.10
2018-04-30T17:44:49.016Z,45.30
2018-04-30T17:46:51.650Z,45.60
2018-04-30T17:48:54.237Z,45.70
2018-04-30T17:50:56.887Z,45.90
2018-04-30T17:53:00.255Z,46.20
2018-04-30T17:55:02.868Z,46.10
2018-04-30T17:57:06.256Z,45.70
2018-04-30T17:59:09.599Z,46.50
2018-04-30T18:01:12.319Z,46.50
2018-04-30T18:03:15.661Z,46.30
2018-04-30T18:05:18.240Z,46.30
2018-04-30T18:07:20.856Z,46.50
2018-04-30T18:09:23.459Z,46.40
2018-04-30T18:11:26.072Z,46.70
2018-04-30T18:13:28.685Z,46.60
2018-04-30T18:15:32.059Z,46.00
2018-04-30T18:17:34.933Z,45.90
2018-04-30T18:19:37.516Z,46.90
2018-04-30T18:21:40.303Z,47.20
2018-04-30T18:23:42.895Z,47.20
2018-04-30T18:25:46.265Z,47.80
2018-04-30T18:27:48.962Z,47.70
2018-04-30T18:29:51.575Z,47.40
2018-04-30T18:31:54.189Z,48.30
2018-04-30T18:33:56.793Z,48.40
2018-04-30T18:35:59.391Z,49.10
2018-04-30T18:38:02.005Z,48.60
2018-04-30T18:40:04.581Z,48.70
2018-04-30T18:42:07.199Z,48.60
2018-04-30T18:44:10.618Z,50.40
2018-04-30T18:46:13.212Z,50.30
2018-04-30T18:48:15.858Z,49.30
2018-04-30T18:50:18.452Z,49.70
2018-04-30T18:52:21.118Z,49.20
2018-04-30T18:54:23.707Z,49.20
2018-04-30T18:56:26.416Z,49.00
2018-04-30T18:58:29.804Z,49.60
2018-04-30T19:00:33.170Z,51.50
2018-04-30T19:02:35.827Z,50.90
2018-04-30T19:04:38.430Z,50.10
2018-04-30T19:06:41.807Z,50.00
2018-04-30T19:08:44.522Z,50.00
2018-04-30T19:10:47.885Z,50.30
2018-04-30T19:12:50.569Z,50.30
2018-04-30T19:14:53.164Z,50.90
2018-04-30T19:16:56.519Z,51.00
2018-04-30T19:18:59.150Z,51.00
2018-04-30T19:21:01.754Z,51.00
2018-04-30T19:23:04.328Z,51.00
2018-04-30T19:25:06.937Z,50.60
2018-04-30T19:27:10.361Z,52.20
2018-04-30T19:29:12.955Z,52.10
2018-04-30T19:31:15.563Z,52.40
2018-04-30T19:33:18.183Z,52.80
2018-04-30T19:35:20.767Z,53.70
2018-04-30T19:37:23.387Z,54.00
2018-04-30T19:39:26.123Z,54.30
2018-04-30T19:41:28.712Z,54.50
2018-04-30T19:43:31.327Z,54.10
2018-04-30T19:45:33.984Z,53.80
2018-04-30T19:47:36.584Z,54.50
2018-04-30T19:49:39.222Z,54.40
2018-04-30T19:51:41.819Z,54.50
2018-04-30T19:53:44.421Z,54.30
2018-04-30T19:55:47.856Z,54.80
2018-04-30T19:57:50.466Z,54.80
2018-04-30T19:59:53.065Z,55.20
2018-04-30T20:01:56.424Z,56.00
2018-04-30T20:03:59.034Z,56.00
2018-04-30T20:06:02.397Z,56.50
2018-04-30T20:08:05.019Z,56.40
2018-04-30T20:10:07.653Z,57.00
2018-04-30T20:12:10.257Z,56.90
2018-04-30T20:14:12.887Z,56.80
2018-04-30T20:16:15.491Z,57.10
2018-04-30T20:18:18.855Z,56.70
2018-04-30T20:20:21.486Z,56.60
2018-04-30T20:22:24.064Z,56.60
2018-04-30T20:24:26.701Z,57.10
2018-04-30T20:26:29.285Z,57.90
2018-04-30T20:28:32.689Z,57.10
2018-04-30T20:30:35.281Z,57.10
2018-04-30T20:32:37.924Z,57.20
2018-04-30T20:34:41.313Z,57.30
2018-04-30T20:36:44.667Z,57.30
2018-04-30T20:38:48.048Z,57.30
2018-04-30T20:40:50.660Z,57.20
2018-04-30T20:42:53.259Z,57.80
2018-04-30T20:44:56.639Z,59.00
2018-04-30T20:46:59.988Z,59.10
2018-04-30T20:49:02.593Z,59.10
2018-04-30T20:51:05.192Z,59.20
2018-04-30T20:53:08.544Z,59.70
2018-04-30T20:55:11.162Z,59.70
2018-04-30T20:57:14.524Z,59.40
2018-04-30T20:59:17.133Z,59.40
2018-04-30T21:01:19.720Z,59.10
2018-04-30T21:03:22.327Z,59.60
2018-04-30T21:05:25.148Z,59.20
2018-04-30T21:07:28.492Z,60.00
2018-04-30T21:09:31.107Z,60.00
2018-04-30T21:11:34.472Z,60.00
2018-04-30T21:13:37.060Z,60.00
2018-04-30T21:15:39.884Z,60.60
2018-04-30T21:17:42.539Z,60.60
2018-04-30T21:19:45.096Z,60.80
2018-04-30T21:21:47.701Z,61.10
2018-04-30T21:23:50.301Z,61.10
2018-04-30T21:25:52.929Z,61.40
2018-04-30T21:27:56.287Z,61.80
2018-04-30T21:29:59.739Z,61.70
2018-04-30T21:32:02.383Z,61.60
2018-04-30T21:34:05.732Z,61.50
2018-04-30T21:36:08.339Z,61.40
2018-04-30T21:38:10.913Z,61.80
2018-04-30T21:40:13.581Z,61.70
2018-04-30T21:42:16.151Z,62.00
2018-04-30T21:44:18.728Z,61.70
2018-04-30T21:46:21.347Z,61.80
2018-04-30T21:48:23.927Z,62.20
2018-04-30T21:50:26.928Z,62.40
2018-04-30T21:52:30.276Z,62.60
2018-04-30T21:54:33.621Z,62.20
2018-04-30T21:56:36.246Z,62.20
2018-04-30T21:58:39.611Z,62.60
2018-04-30T22:00:42.282Z,62.50
2018-04-30T22:02:44.892Z,62.80
2018-04-30T22:04:48.247Z,63.10
2018-04-30T22:06:50.869Z,63.00
2018-04-30T22:08:53.484Z,63.20
2018-04-30T22:10:56.080Z,63.40
2018-04-30T22:12:58.676Z,63.40
2018-04-30T22:15:02.033Z,63.70
2018-04-30T22:17:04.642Z,63.70
2018-04-30T22:19:08.001Z,63.40
2018-04-30T22:21:10.621Z,63.40
2018-04-30T22:23:13.205Z,63.80
2018-04-30T22:25:15.832Z,63.70
2018-04-30T22:27:18.441Z,64.50
2018-04-30T22:29:21.804Z,64.50
2018-04-30T22:31:24.432Z,64.50
2018-04-30T22:33:27.019Z,64.60
2018-04-30T22:35:30.416Z,65.00
2018-04-30T22:37:33.005Z,64.90
2018-04-30T22:39:35.579Z,64.60
2018-04-30T22:41:38.212Z,64.80
2018-04-30T22:43:40.792Z,64.60
2018-04-30T22:45:43.395Z,64.80
2018-04-30T22:47:46.746Z,65.10
2018-04-30T22:49:49.316Z,65.10
2018-04-30T22:51:51.976Z,65.40
2018-04-30T22:53:55.356Z,66.40
2018-04-30T22:55:57.977Z,65.80
2018-04-30T22:58:00.553Z,66.20
2018-04-30T23:00:03.147Z,66.40
2018-04-30T23:02:05.795Z,66.00
2018-04-30T23:04:08.376Z,66.40
2018-04-30T23:06:10.981Z,66.60
2018-04-30T23:08:13.573Z,66.60
2018-04-30T23:10:16.158Z,66.10
2018-04-30T23:12:19.521Z,66.10
2018-04-30T23:14:22.135Z,66.10
2018-04-30T23:16:25.524Z,65.90
2018-04-30T23:18:28.868Z,66.30
2018-04-30T23:20:31.448Z,66.30
2018-04-30T23:22:37.935Z,65.60
2018-04-30T23:24:40.521Z,65.50
2018-04-30T23:26:43.916Z,66.40
2018-04-30T23:28:47.263Z,66.50
2018-04-30T23:30:49.876Z,66.50
2018-04-30T23:32:53.237Z,67.00
2018-04-30T23:34:56.598Z,66.60
2018-04-30T23:36:59.195Z,66.60
2018-04-30T23:39:01.803Z,66.60
2018-04-30T23:41:04.420Z,66.20
2018-04-30T23:43:06.991Z,67.30
2018-04-30T23:45:09.595Z,67.10
2018-04-30T23:47:12.200Z,67.00
2018-04-30T23:49:14.775Z,66.90
2018-04-30T23:51:17.383Z,66.90
2018-04-30T23:53:19.974Z,66.40
2018-04-30T23:55:22.574Z,67.20
2018-04-30T23:57:25.183Z,67.10
2018-04-30T23:59:28.531Z,67.00
